createdAt,value
2023-03-06T00:03:49.955Z,16.92
2023-03-06T00:08:54.736Z,15.43
2023-03-06T00:14:00.399Z,14.93
2023-03-06T00:19:04.625Z,12.95
2023-03-06T00:24:09.284Z,16.02
2023-03-06T00:29:17.584Z,18.52
2023-03-06T00:34:23.681Z,14.73
2023-03-06T00:39:28.990Z,13.02
2023-03-06T00:44:34.480Z,9.77
2023-03-06T00:49:39.746Z,11.13
2023-03-06T00:54:44.591Z,10.65
2023-03-06T00:59:50.776Z,12.25
2023-03-06T01:04:55.313Z,14.10
2023-03-06T01:09:59.382Z,16.63
2023-03-06T01:15:05.901Z,16.40
2023-03-06T01:20:14.111Z,15.88
2023-03-06T01:30:27.067Z,14.77
2023-03-06T01:35:31.837Z,13.10
2023-03-06T01:40:37.974Z,19.38
2023-03-06T01:46:26.989Z,17.15
2023-03-06T01:51:35.355Z,13.90
2023-03-06T01:56:43.566Z,15.73
2023-03-06T02:01:51.949Z,13.05
2023-03-06T02:06:57.509Z,14.50
2023-03-06T02:12:02.436Z,12.52
2023-03-06T02:17:10.369Z,11.93
2023-03-06T02:22:16.420Z,13.60
2023-03-06T02:27:24.397Z,14.20
2023-03-06T02:32:31.245Z,12.07
2023-03-06T02:37:35.997Z,13.45
2023-03-06T02:42:47.288Z,15.68
2023-03-06T02:47:53.046Z,21.38
2023-03-06T02:52:57.302Z,14.20
2023-03-06T02:58:03.748Z,17.25
2023-03-06T03:03:09.143Z,13.50
2023-03-06T03:08:13.943Z,14.25
2023-03-06T03:13:19.709Z,14.15
2023-03-06T03:18:25.986Z,15.35
2023-03-06T03:23:33.996Z,19.27
2023-03-06T03:28:39.915Z,21.38
2023-03-06T03:33:44.008Z,12.90
2023-03-06T03:38:49.210Z,12.30
2023-03-06T03:43:55.440Z,14.40
2023-03-06T03:49:00.731Z,14.98
2023-03-06T03:54:06.174Z,13.45
2023-03-06T03:59:16.356Z,19.98
2023-03-06T04:04:33.831Z,16.07
2023-03-06T04:09:38.075Z,14.55
2023-03-06T04:14:44.143Z,18.65
2023-03-06T04:19:49.532Z,17.35
2023-03-06T04:24:55.053Z,15.45
2023-03-06T04:30:01.401Z,12.68
2023-03-06T04:35:06.341Z,11.18
2023-03-06T04:40:20.376Z,14.00
2023-03-06T04:45:27.261Z,16.17
2023-03-06T04:50:32.716Z,20.65
2023-03-06T04:55:36.972Z,15.60
2023-03-06T05:00:42.992Z,15.60
2023-03-06T05:05:47.146Z,17.52
2023-03-06T05:10:57.613Z,31.48
2023-03-06T05:16:07.906Z,40.90
2023-03-06T05:21:12.197Z,24.73
2023-03-06T05:26:16.624Z,19.92
2023-03-06T05:31:22.604Z,16.67
2023-03-06T05:36:27.111Z,15.73
2023-03-06T05:41:31.572Z,14.82
2023-03-06T05:46:37.878Z,16.98
2023-03-06T05:51:42.110Z,16.85
2023-03-06T05:56:46.478Z,14.27
2023-03-06T06:01:52.276Z,14.27
2023-03-06T06:07:02.410Z,16.02
2023-03-06T06:12:10.267Z,15.98
2023-03-06T06:17:17.731Z,15.05
2023-03-06T06:22:25.167Z,21.08
2023-03-06T06:27:32.925Z,24.83
2023-03-06T06:32:39.370Z,27.55
2023-03-06T06:37:43.781Z,21.52
2023-03-06T06:42:48.351Z,25.75
2023-03-06T06:47:53.926Z,21.65
2023-03-06T06:52:59.462Z,17.20
2023-03-06T06:58:04.245Z,14.82
2023-03-06T07:03:10.888Z,12.80
2023-03-06T07:08:15.285Z,19.10
2023-03-06T07:13:20.000Z,15.27
2023-03-06T07:18:25.972Z,12.80
2023-03-06T07:23:30.840Z,13.52
2023-03-06T07:28:51.279Z,11.38
2023-03-06T07:34:03.784Z,10.73
2023-03-06T07:39:09.224Z,11.73
2023-03-06T07:44:13.585Z,11.80
2023-03-06T07:49:19.055Z,11.30
2023-03-06T07:54:23.165Z,11.60
2023-03-06T07:59:30.073Z,16.13
2023-03-06T08:04:36.831Z,16.17
2023-03-06T08:09:40.862Z,15.73
2023-03-06T08:14:46.015Z,16.60
2023-03-06T08:19:51.708Z,14.07
2023-03-06T08:24:56.793Z,13.43
2023-03-06T08:30:01.564Z,14.68
2023-03-06T08:35:09.952Z,16.00
2023-03-06T08:40:15.056Z,12.90
2023-03-06T08:45:19.473Z,8.38
2023-03-06T08:50:25.182Z,8.68
2023-03-06T08:55:30.259Z,9.30
2023-03-06T09:00:34.941Z,8.88
2023-03-06T09:05:41.834Z,7.13
2023-03-06T09:10:48.117Z,8.80
2023-03-06T09:15:53.049Z,9.48
2023-03-06T09:21:00.135Z,8.65
2023-03-06T09:26:05.451Z,10.13
2023-03-06T09:31:11.598Z,7.40
2023-03-06T09:36:21.334Z,10.63
2023-03-06T09:41:32.304Z,7.88
2023-03-06T09:46:49.320Z,9.48
2023-03-06T09:52:08.478Z,9.70
2023-03-06T09:57:22.541Z,7.60
2023-03-06T10:02:35.900Z,7.32
2023-03-06T10:07:52.185Z,7.47
2023-03-06T10:13:05.871Z,7.95
2023-03-06T10:18:13.333Z,8.38
2023-03-06T10:23:41.338Z,6.97
2023-03-06T10:28:52.599Z,7.68
2023-03-06T10:34:17.641Z,5.43
2023-03-06T10:39:24.688Z,7.40
2023-03-06T10:44:32.599Z,6.57
2023-03-06T10:49:38.822Z,4.65
2023-03-06T10:54:45.716Z,4.22
2023-03-06T10:59:58.186Z,4.95
2023-03-06T11:05:04.401Z,6.05
2023-03-06T11:10:19.868Z,4.18
2023-03-06T11:15:28.547Z,3.85
2023-03-06T11:20:52.991Z,6.18
2023-03-06T11:26:05.083Z,4.65
2023-03-06T11:31:17.409Z,4.20
2023-03-06T11:36:33.730Z,4.45
2023-03-06T11:41:50.617Z,3.63
2023-03-06T11:47:06.472Z,3.80
2023-03-06T11:52:19.951Z,3.88
2023-03-06T11:57:44.915Z,3.58
2023-03-06T12:03:14.269Z,3.63
2023-03-06T12:14:04.009Z,4.53
2023-03-06T12:19:36.625Z,3.97
2023-03-06T12:25:10.131Z,3.90
2023-03-06T12:30:46.450Z,3.53
2023-03-06T12:36:09.722Z,4.97
2023-03-06T12:41:37.750Z,6.25
2023-03-06T12:46:59.893Z,3.80
2023-03-06T12:52:16.031Z,3.80
2023-03-06T12:57:26.382Z,5.35
2023-03-06T13:02:58.004Z,4.47
2023-03-06T13:08:20.579Z,5.13
2023-03-06T13:13:36.194Z,4.13
2023-03-06T13:19:12.893Z,4.35
2023-03-06T13:24:21.304Z,5.43
2023-03-06T13:30:00.275Z,4.82
2023-03-06T13:35:47.704Z,4.22
2023-03-06T13:40:53.017Z,3.63
2023-03-06T13:45:57.283Z,5.45
2023-03-06T13:51:17.304Z,3.72
2023-03-06T13:57:02.610Z,6.10
2023-03-06T14:02:25.057Z,4.40
2023-03-06T14:07:32.205Z,4.50
2023-03-06T14:12:39.427Z,4.60
2023-03-06T14:17:53.851Z,5.35
2023-03-06T14:23:17.700Z,5.32
2023-03-06T14:28:26.344Z,4.38
2023-03-06T14:33:40.914Z,4.73
2023-03-06T14:38:49.286Z,3.45
2023-03-06T14:43:53.968Z,4.32
2023-03-06T14:49:02.017Z,5.10
2023-03-06T14:54:09.233Z,4.95
2023-03-06T14:59:17.883Z,4.43
2023-03-06T15:04:28.498Z,6.33
2023-03-06T15:09:38.867Z,6.55
2023-03-06T15:14:49.613Z,7.25
2023-03-06T15:19:56.518Z,9.73
2023-03-06T15:25:23.401Z,6.75
2023-03-06T15:30:31.474Z,7.07
2023-03-06T15:35:37.854Z,11.00
2023-03-06T15:40:56.680Z,6.15
2023-03-06T15:46:02.758Z,9.00
2023-03-06T15:51:07.374Z,6.78
2023-03-06T15:56:14.244Z,8.50
2023-03-06T16:01:18.997Z,6.35
2023-03-06T16:06:25.724Z,7.15
2023-03-06T16:11:43.379Z,5.82
2023-03-06T16:16:50.269Z,7.15
2023-03-06T16:21:55.700Z,6.90
2023-03-06T16:27:02.835Z,9.05
2023-03-06T16:32:07.834Z,8.50
2023-03-06T16:37:15.053Z,8.95
2023-03-06T16:42:23.288Z,20.85
2023-03-06T16:47:28.064Z,31.30
2023-03-06T16:52:32.678Z,25.45
2023-03-06T16:57:38.247Z,23.55
2023-03-06T17:02:43.632Z,13.70
2023-03-06T17:07:50.389Z,15.57
2023-03-06T17:12:57.308Z,14.00
2023-03-06T17:18:01.819Z,31.27
2023-03-06T17:23:06.362Z,51.38
2023-03-06T17:28:12.421Z,36.30
2023-03-06T17:33:17.926Z,25.00
2023-03-06T17:38:22.129Z,17.15
2023-03-06T17:43:30.298Z,13.68
2023-03-06T17:48:34.822Z,20.15
2023-03-06T17:53:39.544Z,25.38
2023-03-06T17:58:48.168Z,29.23
2023-03-06T18:03:53.830Z,26.70
2023-03-06T18:08:59.802Z,28.02
2023-03-06T18:14:05.965Z,28.17
2023-03-06T18:19:12.637Z,27.48
2023-03-06T18:24:17.086Z,22.10
2023-03-06T18:29:22.997Z,22.83
2023-03-06T18:34:27.261Z,26.48
2023-03-06T18:39:31.638Z,25.00
2023-03-06T18:44:37.404Z,33.17
2023-03-06T18:49:44.110Z,19.67
2023-03-06T18:54:51.665Z,12.40
2023-03-06T18:59:57.514Z,10.77
2023-03-06T19:05:02.028Z,11.85
2023-03-06T19:10:07.036Z,17.35
2023-03-06T19:15:13.619Z,12.40
2023-03-06T19:20:18.475Z,18.35
2023-03-06T19:25:25.640Z,18.27
2023-03-06T19:30:31.347Z,26.30
2023-03-06T19:35:36.612Z,36.60
2023-03-06T19:40:41.092Z,26.38
2023-03-06T19:45:46.586Z,15.88
2023-03-06T19:50:50.676Z,13.02
2023-03-06T19:56:03.563Z,13.45
2023-03-06T20:01:12.692Z,17.98
2023-03-06T20:06:19.620Z,22.67
2023-03-06T20:11:26.198Z,17.35
2023-03-06T20:16:32.917Z,18.13
2023-03-06T20:21:38.479Z,14.82
2023-03-06T20:26:42.439Z,13.07
2023-03-06T20:31:49.222Z,10.63
2023-03-06T20:36:53.312Z,11.25
2023-03-06T20:41:59.199Z,19.92
2023-03-06T20:47:05.029Z,20.50
2023-03-06T20:52:09.039Z,17.33
2023-03-06T20:57:13.279Z,16.48
2023-03-06T21:02:20.443Z,16.60
2023-03-06T21:07:24.508Z,14.77
2023-03-06T21:12:28.629Z,18.67
2023-03-06T21:17:34.341Z,13.90
2023-03-06T21:22:38.714Z,15.32
2023-03-06T21:27:43.467Z,23.95
2023-03-06T21:32:49.590Z,36.58
2023-03-06T21:37:53.609Z,28.48
2023-03-06T21:42:59.943Z,19.52
2023-03-06T21:48:06.035Z,14.65
2023-03-06T21:53:10.555Z,9.55
2023-03-06T21:58:16.454Z,9.15
2023-03-06T22:03:22.348Z,5.03
2023-03-06T22:08:28.244Z,5.43
2023-03-06T22:13:32.445Z,6.95
2023-03-06T22:18:38.397Z,8.52
2023-03-06T22:23:43.073Z,13.90
2023-03-06T22:28:49.928Z,9.18
2023-03-06T22:33:56.711Z,8.45
2023-03-06T22:39:02.754Z,22.83
2023-03-06T22:44:10.303Z,17.35
2023-03-06T22:49:17.024Z,18.40
2023-03-06T22:54:21.145Z,29.35
2023-03-06T22:59:25.337Z,25.95
2023-03-06T23:04:31.275Z,21.10
2023-03-06T23:09:35.726Z,13.55
2023-03-06T23:14:59.263Z,14.63
2023-03-06T23:20:23.787Z,11.82
2023-03-06T23:25:46.199Z,10.45
2023-03-06T23:30:50.478Z,12.13
2023-03-06T23:35:56.004Z,10.82
2023-03-06T23:41:03.318Z,12.75
2023-03-06T23:46:08.258Z,9.35
2023-03-06T23:51:16.205Z,8.45
2023-03-06T23:56:20.469Z,9.35
